createdAt,value
2022-08-23T00:01:24.435Z,11.43
2022-08-23T00:03:53.404Z,11.36
2022-08-23T00:06:22.792Z,11.41
2022-08-23T00:08:51.317Z,11.44
2022-08-23T00:11:34.592Z,11.41
2022-08-23T00:14:08.558Z,11.43
2022-08-23T00:16:37.721Z,11.42
2022-08-23T00:19:06.510Z,11.39
2022-08-23T00:21:35.707Z,11.38
2022-08-23T00:24:03.154Z,11.38
2022-08-23T00:26:54.517Z,11.28
2022-08-23T00:29:28.430Z,11.26
2022-08-23T00:31:55.292Z,11.33
2022-08-23T00:34:22.068Z,11.43
2022-08-23T00:36:50.018Z,11.48
2022-08-23T00:39:19.828Z,11.37
2022-08-23T00:41:48.079Z,11.28
2022-08-23T00:44:42.413Z,11.27
2022-08-23T00:47:31.882Z,11.23
2022-08-23T00:50:23.562Z,11.23
2022-08-23T00:53:12.990Z,11.13
2022-08-23T00:55:42.509Z,11.13
2022-08-23T00:58:09.537Z,11.14
2022-08-23T01:00:36.374Z,11.12
2022-08-23T01:03:07.500Z,11.08
2022-08-23T01:05:56.839Z,11.01
2022-08-23T01:08:26.373Z,10.94
2022-08-23T01:11:08.888Z,10.89
2022-08-23T01:13:58.717Z,10.90
2022-08-23T01:16:33.751Z,10.95
2022-08-23T01:19:03.086Z,10.91
2022-08-23T01:21:50.050Z,10.85
2022-08-23T01:25:06.471Z,10.83
2022-08-23T01:27:06.863Z,10.90
2022-08-23T01:29:33.627Z,10.90
2022-08-23T01:32:01.049Z,10.84
2022-08-23T01:34:29.421Z,10.79
2022-08-23T01:37:02.216Z,10.78
2022-08-23T01:39:28.830Z,10.79
2022-08-23T01:41:55.538Z,10.78
2022-08-23T01:44:22.321Z,10.72
2022-08-23T01:46:57.996Z,10.62
2022-08-23T01:49:25.917Z,10.56
2022-08-23T01:51:52.638Z,10.47
2022-08-23T01:54:19.319Z,10.36
2022-08-23T01:56:46.079Z,10.36
2022-08-23T01:59:13.736Z,10.41
2022-08-23T02:01:40.529Z,10.41
2022-08-23T02:04:07.596Z,10.38
2022-08-23T02:06:34.266Z,10.28
2022-08-23T02:09:01.155Z,10.29
2022-08-23T02:11:37.041Z,10.26
2022-08-23T02:14:18.451Z,10.24
2022-08-23T02:17:03.045Z,10.18
2022-08-23T02:19:35.342Z,10.21
2022-08-23T02:22:03.546Z,10.24
2022-08-23T02:24:31.772Z,10.19
2022-08-23T02:27:02.235Z,10.15
2022-08-23T02:29:29.942Z,10.13
2022-08-23T02:32:00.137Z,10.05
2022-08-23T02:34:27.857Z,10.08
2022-08-23T02:36:54.949Z,10.07
2022-08-23T02:39:22.426Z,10.07
2022-08-23T02:41:49.892Z,10.08
2022-08-23T02:44:18.863Z,10.08
2022-08-23T02:46:50.206Z,10.05
2022-08-23T02:49:20.266Z,10.01
2022-08-23T02:51:46.917Z,9.93
2022-08-23T02:54:13.862Z,9.89
2022-08-23T02:56:40.596Z,9.93
2022-08-23T02:59:07.700Z,9.98
2022-08-23T03:01:37.784Z,10.00
2022-08-23T03:04:08.244Z,9.96
2022-08-23T03:06:35.186Z,9.95
2022-08-23T03:09:02.472Z,9.98
2022-08-23T03:11:29.449Z,9.99
2022-08-23T03:13:58.810Z,9.99
2022-08-23T03:16:25.667Z,9.99
2022-08-23T03:18:52.728Z,9.95
2022-08-23T03:21:21.623Z,9.88
2022-08-23T03:23:48.738Z,9.89
2022-08-23T03:26:16.504Z,9.87
2022-08-23T03:28:44.517Z,9.88
2022-08-23T03:31:12.401Z,9.87
2022-08-23T03:33:40.026Z,9.85
2022-08-23T03:36:10.044Z,9.82
2022-08-23T03:38:38.665Z,9.77
2022-08-23T03:41:06.635Z,9.75
2022-08-23T03:43:34.723Z,9.76
2022-08-23T03:46:02.888Z,9.73
2022-08-23T03:48:29.657Z,9.71
2022-08-23T03:50:56.401Z,9.69
2022-08-23T03:53:24.362Z,9.69
2022-08-23T03:55:54.713Z,9.68
2022-08-23T03:58:21.863Z,9.67
2022-08-23T04:00:49.067Z,9.63
2022-08-23T04:03:16.252Z,9.60
2022-08-23T04:05:43.711Z,9.59
2022-08-23T04:08:11.884Z,9.55
2022-08-23T04:10:39.330Z,9.50
2022-08-23T04:13:10.455Z,9.52
2022-08-23T04:15:37.332Z,9.53
2022-08-23T04:18:06.552Z,9.55
2022-08-23T04:20:36.552Z,9.53
2022-08-23T04:23:03.356Z,9.53
2022-08-23T04:25:34.480Z,9.54
2022-08-23T04:28:03.074Z,9.54
2022-08-23T04:30:30.403Z,9.55
2022-08-23T04:32:57.461Z,9.57
2022-08-23T04:35:25.633Z,9.57
2022-08-23T04:37:53.421Z,9.61
2022-08-23T04:40:38.460Z,9.64
2022-08-23T04:43:05.111Z,9.61
2022-08-23T04:45:32.817Z,9.72
2022-08-23T04:48:00.557Z,9.78
2022-08-23T04:50:27.565Z,9.76
2022-08-23T04:52:54.205Z,9.78
2022-08-23T04:55:20.845Z,9.78
2022-08-23T04:57:47.622Z,9.77
2022-08-23T05:00:15.427Z,9.75
2022-08-23T05:02:42.187Z,9.73
2022-08-23T05:05:11.275Z,9.76
2022-08-23T05:07:41.811Z,9.76
2022-08-23T05:10:13.468Z,9.79
2022-08-23T05:12:40.920Z,9.83
2022-08-23T05:15:12.152Z,9.87
2022-08-23T05:17:39.150Z,9.93
2022-08-23T05:20:08.285Z,9.99
2022-08-23T05:22:37.624Z,10.05
2022-08-23T05:25:04.847Z,10.05
2022-08-23T05:27:31.732Z,10.09
2022-08-23T05:29:58.520Z,10.19
2022-08-23T05:32:26.057Z,10.29
2022-08-23T05:34:53.640Z,10.37
2022-08-23T05:37:20.391Z,10.44
2022-08-23T05:39:47.042Z,10.51
2022-08-23T05:42:16.452Z,10.60
2022-08-23T05:44:45.087Z,10.69
2022-08-23T05:47:15.127Z,10.77
2022-08-23T05:49:42.907Z,10.84
2022-08-23T05:52:14.167Z,10.90
2022-08-23T05:54:41.247Z,11.01
2022-08-23T05:57:08.116Z,11.06
2022-08-23T05:59:34.755Z,11.07
2022-08-23T06:02:02.068Z,11.11
2022-08-23T06:04:28.848Z,11.16
2022-08-23T06:06:58.922Z,11.28
2022-08-23T06:09:26.492Z,11.45
2022-08-23T06:11:53.352Z,11.53
2022-08-23T06:14:20.232Z,11.63
2022-08-23T06:16:52.558Z,11.73
2022-08-23T06:19:20.971Z,11.77
2022-08-23T06:21:48.576Z,11.80
2022-08-23T06:24:15.319Z,11.91
2022-08-23T06:26:45.257Z,12.05
2022-08-23T06:29:15.614Z,12.15
2022-08-23T06:31:48.125Z,12.23
2022-08-23T06:34:22.888Z,12.33
2022-08-23T06:36:52.890Z,12.43
2022-08-23T06:39:21.518Z,12.46
2022-08-23T06:41:48.757Z,12.50
2022-08-23T06:44:17.033Z,12.56
2022-08-23T06:46:44.616Z,12.68
2022-08-23T06:49:11.463Z,12.77
2022-08-23T06:51:44.347Z,12.89
2022-08-23T06:54:14.660Z,12.86
2022-08-23T06:56:43.312Z,12.49
2022-08-23T06:59:10.227Z,12.53
2022-08-23T07:01:45.755Z,12.66
2022-08-23T07:04:15.669Z,12.65
2022-08-23T07:06:42.728Z,12.86
2022-08-23T07:09:09.371Z,12.93
2022-08-23T07:11:36.855Z,13.06
2022-08-23T07:14:07.115Z,13.30
2022-08-23T07:16:44.569Z,13.46
2022-08-23T07:19:12.717Z,13.74
2022-08-23T07:21:41.926Z,13.71
2022-08-23T07:24:09.396Z,13.85
2022-08-23T07:26:36.587Z,13.95
2022-08-23T07:29:06.740Z,13.99
2022-08-23T07:31:38.260Z,14.23
2022-08-23T07:34:06.417Z,14.12
2022-08-23T07:36:33.955Z,14.28
2022-08-23T07:39:01.166Z,14.33
2022-08-23T07:41:32.728Z,14.34
2022-08-23T07:44:04.644Z,14.52
2022-08-23T07:46:33.511Z,14.45
2022-08-23T07:49:04.173Z,14.64
2022-08-23T07:51:32.612Z,14.62
2022-08-23T07:54:01.956Z,14.73
2022-08-23T07:56:29.151Z,14.90
2022-08-23T07:58:56.134Z,14.97
2022-08-23T08:01:26.310Z,15.18
2022-08-23T08:03:55.512Z,15.20
2022-08-23T08:06:28.497Z,15.33
2022-08-23T08:08:55.776Z,15.51
2022-08-23T08:11:30.882Z,15.57
2022-08-23T08:14:05.082Z,15.77
2022-08-23T08:16:36.984Z,15.70
2022-08-23T08:19:07.772Z,15.79
2022-08-23T08:21:36.248Z,15.83
2022-08-23T08:24:09.256Z,15.87
2022-08-23T08:26:36.675Z,15.95
2022-08-23T08:29:04.632Z,15.92
2022-08-23T08:31:31.649Z,16.09
2022-08-23T08:34:00.980Z,16.06
2022-08-23T08:36:35.475Z,16.10
2022-08-23T08:39:06.000Z,16.22
2022-08-23T08:41:39.198Z,16.15
2022-08-23T08:44:34.608Z,16.35
2022-08-23T08:47:08.449Z,16.41
2022-08-23T08:50:02.959Z,16.58
2022-08-23T08:52:38.133Z,16.63
2022-08-23T08:55:14.155Z,16.76
2022-08-23T08:57:44.848Z,16.74
2022-08-23T09:00:15.460Z,16.75
2022-08-23T09:02:43.266Z,16.95
2022-08-23T09:05:14.469Z,16.97
2022-08-23T09:08:02.116Z,17.16
2022-08-23T09:10:43.210Z,17.20
2022-08-23T09:13:22.060Z,17.25
2022-08-23T09:15:49.737Z,17.43
2022-08-23T09:18:17.094Z,17.40
2022-08-23T09:20:49.528Z,17.57
2022-08-23T09:23:23.651Z,17.66
2022-08-23T09:26:03.835Z,17.59
2022-08-23T09:28:34.824Z,17.75
2022-08-23T09:31:02.677Z,17.82
2022-08-23T09:33:46.049Z,17.75
2022-08-23T09:36:22.482Z,18.01
2022-08-23T09:38:55.140Z,18.11
2022-08-23T09:41:43.621Z,18.11
2022-08-23T09:44:13.923Z,18.31
2022-08-23T09:46:44.741Z,18.40
2022-08-23T09:49:30.094Z,18.38
2022-08-23T09:52:00.712Z,18.55
2022-08-23T09:54:32.269Z,18.80
2022-08-23T09:57:02.724Z,18.82
2022-08-23T09:59:39.886Z,18.90
2022-08-23T10:02:16.062Z,19.06
2022-08-23T10:04:57.738Z,19.10
2022-08-23T10:07:35.936Z,18.90
2022-08-23T10:10:36.351Z,19.09
2022-08-23T10:13:05.227Z,19.26
2022-08-23T10:15:49.551Z,19.16
2022-08-23T10:18:44.027Z,19.28
2022-08-23T10:21:23.777Z,19.55
2022-08-23T10:24:11.616Z,19.70
2022-08-23T10:26:51.205Z,19.82
2022-08-23T10:29:39.243Z,20.00
2022-08-23T10:32:24.197Z,20.12
2022-08-23T10:35:25.492Z,20.20
2022-08-23T10:38:17.664Z,20.26
2022-08-23T10:41:00.131Z,20.26
2022-08-23T10:43:38.837Z,20.29
2022-08-23T10:46:07.687Z,20.32
2022-08-23T10:48:42.047Z,20.44
2022-08-23T10:51:21.276Z,20.34
2022-08-23T10:54:01.693Z,20.40
2022-08-23T10:56:29.244Z,20.53
2022-08-23T10:59:03.428Z,20.54
2022-08-23T11:01:57.405Z,20.61
2022-08-23T11:04:38.504Z,20.65
2022-08-23T11:07:19.604Z,20.63
2022-08-23T11:10:09.902Z,20.57
2022-08-23T11:13:03.981Z,20.51
2022-08-23T11:15:44.989Z,20.34
2022-08-23T11:18:33.643Z,20.31
2022-08-23T11:21:26.327Z,20.35
2022-08-23T11:23:54.541Z,20.34
2022-08-23T11:26:26.924Z,20.31
2022-08-23T11:28:55.925Z,20.31
2022-08-23T11:31:44.973Z,20.28
2022-08-23T11:34:23.090Z,20.25
2022-08-23T11:37:27.259Z,20.26
2022-08-23T11:39:57.687Z,20.21
2022-08-23T11:42:44.153Z,20.15
2022-08-23T11:45:42.724Z,19.33
2022-08-23T11:48:43.526Z,19.55
2022-08-23T11:51:34.693Z,19.77
2022-08-23T11:54:27.513Z,19.87
2022-08-23T11:57:23.723Z,19.97
2022-08-23T12:00:09.099Z,20.10
2022-08-23T12:02:38.602Z,20.22
2022-08-23T12:05:23.607Z,20.29
2022-08-23T12:07:53.243Z,20.35
2022-08-23T12:10:43.105Z,20.48
2022-08-23T12:13:19.577Z,20.55
2022-08-23T12:16:06.556Z,20.54
2022-08-23T12:18:36.792Z,20.66
2022-08-23T12:21:09.039Z,20.75
2022-08-23T12:23:55.269Z,20.79
2022-08-23T12:26:43.101Z,20.80
2022-08-23T12:29:19.878Z,20.76
2022-08-23T12:31:55.439Z,20.80
2022-08-23T12:35:00.272Z,20.79
2022-08-23T12:37:45.271Z,20.84
2022-08-23T12:40:26.103Z,20.88
2022-08-23T12:43:03.721Z,20.95
2022-08-23T12:45:56.849Z,21.02
2022-08-23T12:48:31.495Z,21.02
2022-08-23T12:51:03.111Z,20.98
2022-08-23T12:53:38.524Z,21.01
2022-08-23T12:56:32.098Z,20.96
2022-08-23T12:59:05.055Z,21.01
2022-08-23T13:01:35.847Z,21.11
2022-08-23T13:04:11.107Z,21.18
2022-08-23T13:06:51.645Z,21.15
2022-08-23T13:09:33.202Z,21.19
2022-08-23T13:12:00.684Z,21.34
2022-08-23T13:14:33.474Z,21.29
2022-08-23T13:17:18.023Z,21.30
2022-08-23T13:19:47.105Z,21.28
2022-08-23T13:22:22.374Z,21.21
2022-08-23T13:27:58.112Z,21.21
2022-08-23T13:30:36.353Z,21.19
2022-08-23T13:33:07.722Z,21.20
2022-08-23T13:35:36.238Z,21.29
2022-08-23T13:38:21.369Z,21.25
2022-08-23T13:41:00.200Z,21.26
2022-08-23T13:43:35.993Z,21.16
2022-08-23T13:46:11.561Z,21.11
2022-08-23T13:48:47.521Z,21.16
2022-08-23T13:51:30.106Z,21.08
2022-08-23T13:54:00.692Z,21.06
2022-08-23T13:56:29.717Z,21.03
2022-08-23T13:59:01.448Z,21.01
2022-08-23T14:01:29.290Z,20.93
2022-08-23T14:03:56.641Z,20.91
2022-08-23T14:06:24.093Z,20.96
2022-08-23T14:08:51.080Z,20.97
2022-08-23T14:11:18.239Z,20.94
2022-08-23T14:13:47.535Z,20.92
2022-08-23T14:16:39.428Z,20.86
2022-08-23T14:19:19.194Z,20.82
2022-08-23T14:21:56.720Z,20.84
2022-08-23T14:24:23.514Z,20.81
2022-08-23T14:26:52.500Z,20.80
2022-08-23T14:29:22.261Z,20.78
2022-08-23T14:31:51.320Z,20.86
2022-08-23T14:34:18.208Z,20.90
2022-08-23T14:38:00.242Z,20.89
2022-08-23T14:39:31.612Z,20.93
2022-08-23T14:41:58.479Z,20.95
2022-08-23T14:44:28.994Z,20.87
2022-08-23T14:47:00.172Z,20.81
2022-08-23T14:49:27.629Z,20.83
2022-08-23T14:51:54.386Z,20.89
2022-08-23T14:54:25.036Z,20.92
2022-08-23T14:56:53.352Z,20.90
2022-08-23T14:59:20.545Z,20.86
2022-08-23T15:01:49.480Z,20.92
2022-08-23T15:04:18.840Z,20.96
2022-08-23T15:07:06.853Z,20.99
2022-08-23T15:09:33.679Z,20.96
2022-08-23T15:14:49.548Z,20.99
2022-08-23T15:17:16.460Z,21.01
2022-08-23T15:19:43.160Z,21.00
2022-08-23T15:22:18.658Z,21.03
2022-08-23T15:24:49.584Z,21.02
2022-08-23T15:27:17.928Z,21.05
2022-08-23T15:29:44.581Z,21.05
2022-08-23T15:32:12.700Z,21.04
2022-08-23T15:34:46.248Z,20.97
2022-08-23T15:37:13.993Z,20.97
2022-08-23T15:39:42.328Z,20.89
2022-08-23T15:42:09.272Z,20.81
2022-08-23T15:44:35.914Z,20.81
2022-08-23T15:47:04.920Z,20.74
2022-08-23T15:49:36.565Z,20.68
2022-08-23T15:52:06.728Z,20.62
2022-08-23T15:54:33.337Z,20.68
2022-08-23T15:57:00.143Z,20.69
2022-08-23T15:59:26.972Z,20.66
2022-08-23T16:01:53.680Z,20.64
2022-08-23T16:04:20.676Z,20.61
2022-08-23T16:06:48.210Z,20.54
2022-08-23T16:09:21.235Z,20.55
2022-08-23T16:11:48.444Z,20.57
2022-08-23T16:14:15.567Z,20.51
2022-08-23T16:16:46.594Z,20.50
2022-08-23T16:19:14.905Z,20.52
2022-08-23T16:21:44.187Z,20.55
2022-08-23T16:24:10.888Z,20.58
2022-08-23T16:26:41.868Z,20.56
2022-08-23T16:29:11.159Z,20.55
2022-08-23T16:31:39.951Z,20.48
2022-08-23T16:34:13.515Z,20.44
2022-08-23T16:36:43.642Z,20.49
2022-08-23T16:39:10.914Z,20.44
2022-08-23T16:41:37.571Z,20.42
2022-08-23T16:44:06.663Z,20.39
2022-08-23T16:46:34.191Z,20.30
2022-08-23T16:49:02.437Z,20.25
2022-08-23T16:51:29.059Z,20.20
2022-08-23T16:54:02.524Z,20.19
2022-08-23T16:56:30.507Z,20.01
2022-08-23T16:58:59.775Z,20.00
2022-08-23T17:01:29.166Z,19.98
2022-08-23T17:03:56.044Z,19.94
2022-08-23T17:06:22.717Z,19.90
2022-08-23T17:08:49.692Z,19.88
2022-08-23T17:11:19.270Z,19.81
2022-08-23T17:13:46.061Z,19.75
2022-08-23T17:16:12.800Z,19.67
2022-08-23T17:18:39.684Z,19.62
2022-08-23T17:21:07.779Z,19.53
2022-08-23T17:23:39.289Z,19.40
2022-08-23T17:26:08.458Z,19.29
2022-08-23T17:28:35.484Z,19.21
2022-08-23T17:31:02.668Z,19.21
2022-08-23T17:33:29.371Z,19.18
2022-08-23T17:35:58.309Z,19.10
2022-08-23T17:38:27.347Z,19.07
2022-08-23T17:40:54.980Z,19.01
2022-08-23T17:43:21.597Z,18.89
2022-08-23T17:45:52.600Z,18.77
2022-08-23T17:48:22.037Z,18.61
2022-08-23T17:50:50.276Z,18.51
2022-08-23T17:53:18.386Z,18.35
2022-08-23T17:55:45.148Z,18.21
2022-08-23T17:58:12.274Z,18.19
2022-08-23T18:00:39.686Z,18.17
2022-08-23T18:03:06.947Z,18.10
2022-08-23T18:05:35.466Z,18.00
2022-08-23T18:08:02.350Z,17.91
2022-08-23T18:10:30.267Z,17.79
2022-08-23T18:12:58.730Z,17.70
2022-08-23T18:15:28.971Z,17.61
2022-08-23T18:17:58.342Z,17.51
2022-08-23T18:20:29.013Z,17.42
2022-08-23T18:22:57.400Z,17.28
2022-08-23T18:25:24.648Z,17.19
2022-08-23T18:28:08.254Z,16.47
2022-08-23T18:30:38.030Z,16.37
2022-08-23T18:33:06.529Z,16.50
2022-08-23T18:35:34.689Z,16.52
2022-08-23T18:38:01.359Z,16.53
2022-08-23T18:40:29.512Z,16.55
2022-08-23T18:42:57.076Z,16.50
2022-08-23T18:45:24.213Z,16.37
2022-08-23T18:47:50.988Z,16.31
2022-08-23T18:50:19.321Z,16.27
2022-08-23T18:52:46.103Z,16.23
2022-08-23T18:55:12.821Z,16.24
2022-08-23T18:57:39.569Z,16.05
2022-08-23T19:00:09.477Z,15.53
2022-08-23T19:02:36.137Z,15.64
2022-08-23T19:05:03.654Z,15.77
2022-08-23T19:07:31.109Z,15.67
2022-08-23T19:09:58.071Z,15.22
2022-08-23T19:12:25.035Z,15.31
2022-08-23T19:14:51.769Z,15.37
2022-08-23T19:17:18.533Z,15.28
2022-08-23T19:19:45.272Z,14.83
2022-08-23T19:22:12.732Z,14.89
2022-08-23T19:24:39.700Z,14.92
2022-08-23T19:27:06.743Z,14.84
2022-08-23T19:29:33.529Z,14.58
2022-08-23T19:32:01.037Z,14.67
2022-08-23T19:34:28.316Z,14.79
2022-08-23T19:37:00.836Z,14.48
2022-08-23T19:39:28.877Z,14.33
2022-08-23T19:41:55.662Z,14.47
2022-08-23T19:44:22.839Z,14.56
2022-08-23T19:46:51.202Z,14.16
2022-08-23T19:49:17.921Z,14.15
2022-08-23T19:51:44.908Z,14.32
2022-08-23T19:54:13.197Z,14.29
2022-08-23T19:56:46.679Z,13.91
2022-08-23T19:59:20.693Z,13.99
2022-08-23T20:01:49.810Z,14.10
2022-08-23T20:04:19.929Z,13.99
2022-08-23T20:06:48.772Z,13.67
2022-08-23T20:09:16.339Z,13.79
2022-08-23T20:11:43.734Z,13.88
2022-08-23T20:14:11.089Z,13.66
2022-08-23T20:16:40.625Z,13.45
2022-08-23T20:19:09.614Z,13.61
2022-08-23T20:21:36.411Z,13.60
2022-08-23T20:24:06.060Z,13.19
2022-08-23T20:26:46.778Z,13.29
2022-08-23T20:29:19.387Z,13.38
2022-08-23T20:31:53.398Z,13.01
2022-08-23T20:34:20.685Z,12.95
2022-08-23T20:36:47.433Z,13.11
2022-08-23T20:39:14.548Z,13.11
2022-08-23T20:41:41.418Z,12.70
2022-08-23T20:44:09.033Z,12.83
2022-08-23T20:46:36.031Z,12.98
2022-08-23T20:49:05.329Z,12.92
2022-08-23T20:51:36.546Z,12.71
2022-08-23T20:54:07.521Z,12.83
2022-08-23T20:56:35.480Z,12.93
2022-08-23T20:59:02.178Z,12.58
2022-08-23T21:01:29.164Z,12.53
2022-08-23T21:03:55.852Z,12.72
2022-08-23T21:06:36.300Z,12.72
2022-08-23T21:09:03.313Z,12.32
2022-08-23T21:11:30.615Z,12.50
2022-08-23T21:13:58.665Z,12.72
2022-08-23T21:16:26.152Z,12.63
2022-08-23T21:18:55.455Z,12.63
2022-08-23T21:21:23.425Z,12.78
2022-08-23T21:23:50.263Z,12.81
2022-08-23T21:26:17.036Z,12.48
2022-08-23T21:28:43.827Z,12.58
2022-08-23T21:31:17.374Z,12.71
2022-08-23T21:33:45.213Z,12.71
2022-08-23T21:36:13.827Z,12.31
2022-08-23T21:38:40.727Z,12.42
2022-08-23T21:41:11.442Z,12.56
2022-08-23T21:43:39.002Z,12.36
2022-08-23T21:46:07.340Z,12.05
2022-08-23T21:48:35.871Z,12.17
2022-08-23T21:51:03.549Z,12.24
2022-08-23T21:53:31.125Z,11.81
2022-08-23T21:55:57.951Z,11.79
2022-08-23T21:58:24.873Z,12.00
2022-08-23T22:00:51.603Z,11.95
2022-08-23T22:03:18.413Z,11.54
2022-08-23T22:05:48.101Z,11.55
2022-08-23T22:08:17.146Z,11.75
2022-08-23T22:10:57.247Z,11.60
2022-08-23T22:13:28.979Z,11.46
2022-08-23T22:15:56.369Z,11.59
2022-08-23T22:18:23.175Z,11.74
2022-08-23T22:20:49.993Z,11.37
2022-08-23T22:23:17.304Z,11.15
2022-08-23T22:25:44.205Z,11.36
2022-08-23T22:28:10.832Z,11.49
2022-08-23T22:30:39.363Z,11.13
2022-08-23T22:33:06.361Z,10.97
2022-08-23T22:35:35.317Z,11.08
2022-08-23T22:38:13.819Z,11.25
2022-08-23T22:40:48.496Z,11.02
2022-08-23T22:43:15.796Z,10.83
2022-08-23T22:45:53.679Z,10.94
2022-08-23T22:48:21.689Z,10.73
2022-08-23T22:50:49.339Z,10.64
2022-08-23T22:53:17.776Z,10.80
2022-08-23T22:55:50.877Z,10.93
2022-08-23T22:58:18.242Z,11.01
2022-08-23T23:00:45.406Z,10.64
2022-08-23T23:03:14.797Z,10.39
2022-08-23T23:05:41.468Z,10.54
2022-08-23T23:08:27.022Z,10.37
2022-08-23T23:11:02.836Z,10.19
2022-08-23T23:13:31.647Z,10.37
2022-08-23T23:16:02.228Z,10.08
2022-08-23T23:18:29.367Z,10.18
2022-08-23T23:21:02.975Z,10.24
2022-08-23T23:23:31.332Z,9.93
2022-08-23T23:25:58.561Z,9.86
2022-08-23T23:28:25.340Z,10.09
2022-08-23T23:30:53.843Z,9.91
2022-08-23T23:33:21.709Z,9.82
2022-08-23T23:35:49.380Z,10.01
2022-08-23T23:38:16.739Z,9.75
2022-08-23T23:40:43.845Z,9.58
2022-08-23T23:43:13.205Z,9.79
2022-08-23T23:45:40.995Z,9.57
2022-08-23T23:48:08.987Z,9.48
2022-08-23T23:50:36.736Z,9.65
2022-08-23T23:53:04.444Z,9.60
2022-08-23T23:55:31.111Z,9.50
2022-08-23T23:57:58.735Z,9.67
